sensor_id;sensor_type;location;lat;lon;timestamp;P1;durP1;ratioP1;P2;durP2;ratioP2
5195;SDS011;2617;51.006;12.436;2023-03-04T00:01:28;7.37;;;5.00;;
5195;SDS011;2617;51.006;12.436;2023-03-04T00:06:32;6.47;;;5.50;;
5195;SDS011;2617;51.006;12.436;2023-03-04T00:11:34;7.47;;;5.47;;
5195;SDS011;2617;51.006;12.436;2023-03-04T00:16:37;9.17;;;5.93;;
5195;SDS011;2617;51.006;12.436;2023-03-04T00:21:40;9.07;;;5.60;;
5195;SDS011;2617;51.006;12.436;2023-03-04T00:26:42;8.57;;;6.45;;
5195;SDS011;2617;51.006;12.436;2023-03-04T00:31:45;10.63;;;6.17;;
5195;SDS011;2617;51.006;12.436;2023-03-04T00:36:47;10.07;;;5.77;;
5195;SDS011;2617;51.006;12.436;2023-03-04T00:41:50;10.70;;;6.10;;
5195;SDS011;2617;51.006;12.436;2023-03-04T00:46:52;12.93;;;6.87;;
5195;SDS011;2617;51.006;12.436;2023-03-04T00:51:54;11.57;;;7.60;;
5195;SDS011;2617;51.006;12.436;2023-03-04T00:56:57;10.83;;;6.73;;
5195;SDS011;2617;51.006;12.436;2023-03-04T01:01:59;10.47;;;6.90;;
5195;SDS011;2617;51.006;12.436;2023-03-04T01:07:02;13.50;;;7.73;;
5195;SDS011;2617;51.006;12.436;2023-03-04T01:12:04;15.07;;;7.80;;
5195;SDS011;2617;51.006;12.436;2023-03-04T01:17:07;13.43;;;8.03;;
5195;SDS011;2617;51.006;12.436;2023-03-04T01:22:09;12.77;;;6.90;;
5195;SDS011;2617;51.006;12.436;2023-03-04T01:27:12;10.73;;;6.95;;
5195;SDS011;2617;51.006;12.436;2023-03-04T01:32:14;13.67;;;7.87;;
5195;SDS011;2617;51.006;12.436;2023-03-04T01:37:16;11.50;;;6.77;;
5195;SDS011;2617;51.006;12.436;2023-03-04T01:42:20;14.20;;;7.90;;
5195;SDS011;2617;51.006;12.436;2023-03-04T01:47:22;10.48;;;6.37;;
5195;SDS011;2617;51.006;12.436;2023-03-04T01:52:24;9.53;;;5.60;;
5195;SDS011;2617;51.006;12.436;2023-03-04T01:57:32;11.27;;;6.97;;
5195;SDS011;2617;51.006;12.436;2023-03-04T02:02:30;13.40;;;6.73;;
5195;SDS011;2617;51.006;12.436;2023-03-04T02:07:33;10.07;;;5.90;;
5195;SDS011;2617;51.006;12.436;2023-03-04T02:12:35;14.70;;;6.28;;
5195;SDS011;2617;51.006;12.436;2023-03-04T02:17:39;10.53;;;6.40;;
5195;SDS011;2617;51.006;12.436;2023-03-04T02:22:44;10.03;;;5.87;;
5195;SDS011;2617;51.006;12.436;2023-03-04T02:27:45;10.60;;;6.33;;
5195;SDS011;2617;51.006;12.436;2023-03-04T02:32:47;11.83;;;6.40;;
5195;SDS011;2617;51.006;12.436;2023-03-04T02:37:50;13.20;;;7.53;;
5195;SDS011;2617;51.006;12.436;2023-03-04T02:42:52;10.37;;;6.57;;
5195;SDS011;2617;51.006;12.436;2023-03-04T02:47:55;12.60;;;6.90;;
5195;SDS011;2617;51.006;12.436;2023-03-04T02:52:58;13.17;;;7.50;;
5195;SDS011;2617;51.006;12.436;2023-03-04T02:58:00;10.70;;;6.40;;
5195;SDS011;2617;51.006;12.436;2023-03-04T03:03:03;12.80;;;7.90;;
5195;SDS011;2617;51.006;12.436;2023-03-04T03:08:06;12.43;;;6.70;;
5195;SDS011;2617;51.006;12.436;2023-03-04T03:13:09;12.93;;;7.27;;
5195;SDS011;2617;51.006;12.436;2023-03-04T03:18:12;10.20;;;6.83;;
5195;SDS011;2617;51.006;12.436;2023-03-04T03:23:14;12.85;;;6.72;;
5195;SDS011;2617;51.006;12.436;2023-03-04T03:28:17;14.20;;;7.80;;
5195;SDS011;2617;51.006;12.436;2023-03-04T03:33:20;13.77;;;7.27;;
5195;SDS011;2617;51.006;12.436;2023-03-04T03:38:22;13.10;;;7.30;;
5195;SDS011;2617;51.006;12.436;2023-03-04T03:43:24;11.80;;;7.80;;
5195;SDS011;2617;51.006;12.436;2023-03-04T03:48:27;12.50;;;7.10;;
5195;SDS011;2617;51.006;12.436;2023-03-04T03:53:29;10.73;;;6.60;;
5195;SDS011;2617;51.006;12.436;2023-03-04T03:58:32;17.17;;;8.00;;
5195;SDS011;2617;51.006;12.436;2023-03-04T04:03:34;17.23;;;8.40;;
5195;SDS011;2617;51.006;12.436;2023-03-04T04:08:37;16.00;;;8.00;;
5195;SDS011;2617;51.006;12.436;2023-03-04T04:13:41;12.05;;;8.38;;
5195;SDS011;2617;51.006;12.436;2023-03-04T04:18:44;15.60;;;8.13;;
5195;SDS011;2617;51.006;12.436;2023-03-04T04:23:46;11.90;;;6.87;;
5195;SDS011;2617;51.006;12.436;2023-03-04T04:28:48;11.30;;;8.27;;
5195;SDS011;2617;51.006;12.436;2023-03-04T04:33:51;18.40;;;9.97;;
5195;SDS011;2617;51.006;12.436;2023-03-04T04:38:53;11.63;;;7.87;;
5195;SDS011;2617;51.006;12.436;2023-03-04T04:43:56;16.93;;;8.90;;
5195;SDS011;2617;51.006;12.436;2023-03-04T04:48:59;16.60;;;8.60;;
5195;SDS011;2617;51.006;12.436;2023-03-04T04:54:01;13.00;;;8.03;;
5195;SDS011;2617;51.006;12.436;2023-03-04T04:59:04;14.80;;;8.30;;
5195;SDS011;2617;51.006;12.436;2023-03-04T05:04:06;11.90;;;7.87;;
5195;SDS011;2617;51.006;12.436;2023-03-04T05:09:09;14.33;;;7.87;;
5195;SDS011;2617;51.006;12.436;2023-03-04T05:14:11;13.37;;;8.20;;
5195;SDS011;2617;51.006;12.436;2023-03-04T05:19:14;13.87;;;8.47;;
5195;SDS011;2617;51.006;12.436;2023-03-04T05:24:17;13.30;;;8.40;;
5195;SDS011;2617;51.006;12.436;2023-03-04T05:29:19;14.43;;;7.67;;
5195;SDS011;2617;51.006;12.436;2023-03-04T05:34:22;18.43;;;9.90;;
5195;SDS011;2617;51.006;12.436;2023-03-04T05:39:24;17.77;;;7.53;;
5195;SDS011;2617;51.006;12.436;2023-03-04T05:44:27;14.90;;;8.60;;
5195;SDS011;2617;51.006;12.436;2023-03-04T05:49:29;12.60;;;7.90;;
5195;SDS011;2617;51.006;12.436;2023-03-04T05:54:31;16.92;;;9.35;;
5195;SDS011;2617;51.006;12.436;2023-03-04T05:59:35;14.93;;;7.70;;
5195;SDS011;2617;51.006;12.436;2023-03-04T06:04:37;15.97;;;7.10;;
5195;SDS011;2617;51.006;12.436;2023-03-04T06:09:39;17.03;;;6.80;;
5195;SDS011;2617;51.006;12.436;2023-03-04T06:14:44;12.57;;;6.43;;
5195;SDS011;2617;51.006;12.436;2023-03-04T06:19:46;15.00;;;6.80;;
5195;SDS011;2617;51.006;12.436;2023-03-04T06:24:48;10.40;;;6.18;;
5195;SDS011;2617;51.006;12.436;2023-03-04T06:29:51;12.87;;;7.13;;
5195;SDS011;2617;51.006;12.436;2023-03-04T06:34:53;13.80;;;6.90;;
5195;SDS011;2617;51.006;12.436;2023-03-04T06:39:56;14.98;;;7.30;;
5195;SDS011;2617;51.006;12.436;2023-03-04T06:44:58;12.10;;;7.00;;
5195;SDS011;2617;51.006;12.436;2023-03-04T06:50:02;9.60;;;5.50;;
5195;SDS011;2617;51.006;12.436;2023-03-04T06:55:04;14.30;;;7.00;;
5195;SDS011;2617;51.006;12.436;2023-03-04T07:00:09;14.53;;;6.50;;
5195;SDS011;2617;51.006;12.436;2023-03-04T07:05:12;9.47;;;5.87;;
5195;SDS011;2617;51.006;12.436;2023-03-04T07:10:16;12.97;;;6.20;;
5195;SDS011;2617;51.006;12.436;2023-03-04T07:15:18;14.40;;;6.17;;
5195;SDS011;2617;51.006;12.436;2023-03-04T07:20:21;14.40;;;5.77;;
5195;SDS011;2617;51.006;12.436;2023-03-04T07:25:24;14.00;;;8.10;;
5195;SDS011;2617;51.006;12.436;2023-03-04T07:30:27;8.88;;;5.15;;
5195;SDS011;2617;51.006;12.436;2023-03-04T07:35:30;10.73;;;4.87;;
5195;SDS011;2617;51.006;12.436;2023-03-04T07:40:33;10.03;;;5.13;;
5195;SDS011;2617;51.006;12.436;2023-03-04T07:45:35;14.00;;;5.20;;
5195;SDS011;2617;51.006;12.436;2023-03-04T07:50:38;17.67;;;5.95;;
5195;SDS011;2617;51.006;12.436;2023-03-04T07:55:41;16.48;;;5.45;;
5195;SDS011;2617;51.006;12.436;2023-03-04T08:00:43;15.97;;;5.97;;
5195;SDS011;2617;51.006;12.436;2023-03-04T08:05:46;14.13;;;5.77;;
5195;SDS011;2617;51.006;12.436;2023-03-04T08:10:48;11.90;;;4.90;;
5195;SDS011;2617;51.006;12.436;2023-03-04T08:15:50;11.23;;;5.03;;
5195;SDS011;2617;51.006;12.436;2023-03-04T08:20:54;15.50;;;4.30;;
5195;SDS011;2617;51.006;12.436;2023-03-04T08:25:56;13.60;;;4.75;;
5195;SDS011;2617;51.006;12.436;2023-03-04T08:30:59;9.50;;;3.53;;
5195;SDS011;2617;51.006;12.436;2023-03-04T08:36:02;5.00;;;3.13;;
5195;SDS011;2617;51.006;12.436;2023-03-04T08:41:04;6.20;;;3.50;;
5195;SDS011;2617;51.006;12.436;2023-03-04T08:46:07;9.60;;;2.20;;
5195;SDS011;2617;51.006;12.436;2023-03-04T08:51:10;5.50;;;2.70;;
5195;SDS011;2617;51.006;12.436;2023-03-04T08:56:13;5.57;;;3.10;;
5195;SDS011;2617;51.006;12.436;2023-03-04T09:01:15;8.87;;;3.40;;
5195;SDS011;2617;51.006;12.436;2023-03-04T09:06:18;9.50;;;2.78;;
5195;SDS011;2617;51.006;12.436;2023-03-04T09:11:20;7.87;;;3.00;;
5195;SDS011;2617;51.006;12.436;2023-03-04T09:16:22;6.73;;;3.37;;
5195;SDS011;2617;51.006;12.436;2023-03-04T09:21:25;6.15;;;2.95;;
5195;SDS011;2617;51.006;12.436;2023-03-04T09:26:28;6.13;;;3.07;;
5195;SDS011;2617;51.006;12.436;2023-03-04T09:31:30;9.70;;;3.13;;
5195;SDS011;2617;51.006;12.436;2023-03-04T09:36:33;4.47;;;2.90;;
5195;SDS011;2617;51.006;12.436;2023-03-04T09:41:36;8.13;;;2.60;;
5195;SDS011;2617;51.006;12.436;2023-03-04T09:46:41;17.03;;;3.20;;
5195;SDS011;2617;51.006;12.436;2023-03-04T09:51:47;9.74;;;3.16;;
5195;SDS011;2617;51.006;12.436;2023-03-04T09:57:14;5.07;;;2.53;;
5195;SDS011;2617;51.006;12.436;2023-03-04T10:02:34;6.50;;;2.70;;
5195;SDS011;2617;51.006;12.436;2023-03-04T10:07:34;8.47;;;2.07;;
5195;SDS011;2617;51.006;12.436;2023-03-04T10:12:36;4.60;;;2.33;;
5195;SDS011;2617;51.006;12.436;2023-03-04T10:17:39;3.22;;;2.00;;
5195;SDS011;2617;51.006;12.436;2023-03-04T10:22:44;5.53;;;2.60;;
5195;SDS011;2617;51.006;12.436;2023-03-04T10:28:01;7.97;;;2.20;;
5195;SDS011;2617;51.006;12.436;2023-03-04T10:33:12;2.57;;;1.57;;
5195;SDS011;2617;51.006;12.436;2023-03-04T10:38:15;2.60;;;1.80;;
5195;SDS011;2617;51.006;12.436;2023-03-04T10:43:18;3.30;;;1.67;;
5195;SDS011;2617;51.006;12.436;2023-03-04T10:48:22;4.66;;;2.12;;
5195;SDS011;2617;51.006;12.436;2023-03-04T10:53:29;7.27;;;1.70;;
5195;SDS011;2617;51.006;12.436;2023-03-04T10:58:31;3.37;;;1.75;;
5195;SDS011;2617;51.006;12.436;2023-03-04T11:03:34;4.30;;;1.67;;
5195;SDS011;2617;51.006;12.436;2023-03-04T11:08:37;3.27;;;1.90;;
5195;SDS011;2617;51.006;12.436;2023-03-04T11:13:38;7.18;;;1.20;;
5195;SDS011;2617;51.006;12.436;2023-03-04T11:18:45;3.10;;;1.27;;
5195;SDS011;2617;51.006;12.436;2023-03-04T11:23:54;1.45;;;1.35;;
5195;SDS011;2617;51.006;12.436;2023-03-04T11:29:04;7.03;;;1.07;;
5195;SDS011;2617;51.006;12.436;2023-03-04T11:39:19;1.30;;;0.87;;
5195;SDS011;2617;51.006;12.436;2023-03-04T11:44:38;1.23;;;0.80;;
5195;SDS011;2617;51.006;12.436;2023-03-04T11:49:51;0.77;;;0.77;;
5195;SDS011;2617;51.006;12.436;2023-03-04T12:11:33;2.60;;;1.00;;
5195;SDS011;2617;51.006;12.436;2023-03-04T12:17:08;0.70;;;0.70;;
5195;SDS011;2617;51.006;12.436;2023-03-04T12:27:53;3.23;;;0.77;;
5195;SDS011;2617;51.006;12.436;2023-03-04T12:33:03;1.43;;;1.20;;
5195;SDS011;2617;51.006;12.436;2023-03-04T12:44:00;2.13;;;0.90;;
5195;SDS011;2617;51.006;12.436;2023-03-04T12:54:39;2.10;;;1.13;;
5195;SDS011;2617;51.006;12.436;2023-03-04T12:59:43;2.30;;;1.00;;
5195;SDS011;2617;51.006;12.436;2023-03-04T13:05:01;2.80;;;0.90;;
5195;SDS011;2617;51.006;12.436;2023-03-04T13:10:06;1.23;;;0.93;;
5195;SDS011;2617;51.006;12.436;2023-03-04T13:20:37;0.90;;;0.80;;
5195;SDS011;2617;51.006;12.436;2023-03-04T13:25:40;0.90;;;0.90;;
5195;SDS011;2617;51.006;12.436;2023-03-04T13:41:31;10.10;;;2.03;;
5195;SDS011;2617;51.006;12.436;2023-03-04T13:46:39;1.17;;;1.17;;
5195;SDS011;2617;51.006;12.436;2023-03-04T13:51:41;1.23;;;0.80;;
5195;SDS011;2617;51.006;12.436;2023-03-04T13:56:44;1.37;;;1.27;;
5195;SDS011;2617;51.006;12.436;2023-03-04T14:01:49;3.42;;;1.34;;
5195;SDS011;2617;51.006;12.436;2023-03-04T14:06:53;1.55;;;0.80;;
5195;SDS011;2617;51.006;12.436;2023-03-04T14:11:55;1.43;;;1.33;;
5195;SDS011;2617;51.006;12.436;2023-03-04T14:16:59;3.03;;;0.95;;
5195;SDS011;2617;51.006;12.436;2023-03-04T14:22:01;1.70;;;0.80;;
5195;SDS011;2617;51.006;12.436;2023-03-04T14:27:09;0.90;;;0.90;;
5195;SDS011;2617;51.006;12.436;2023-03-04T14:32:09;1.57;;;1.23;;
5195;SDS011;2617;51.006;12.436;2023-03-04T14:37:19;0.90;;;0.60;;
5195;SDS011;2617;51.006;12.436;2023-03-04T14:42:22;1.40;;;0.87;;
5195;SDS011;2617;51.006;12.436;2023-03-04T14:47:32;0.87;;;0.87;;
5195;SDS011;2617;51.006;12.436;2023-03-04T14:52:36;2.30;;;1.70;;
5195;SDS011;2617;51.006;12.436;2023-03-04T14:57:38;5.47;;;5.10;;
5195;SDS011;2617;51.006;12.436;2023-03-04T15:02:41;2.63;;;2.43;;
5195;SDS011;2617;51.006;12.436;2023-03-04T15:07:44;1.43;;;1.33;;
5195;SDS011;2617;51.006;12.436;2023-03-04T15:12:49;2.17;;;1.33;;
5195;SDS011;2617;51.006;12.436;2023-03-04T15:17:56;1.54;;;1.44;;
5195;SDS011;2617;51.006;12.436;2023-03-04T15:22:59;2.67;;;1.70;;
5195;SDS011;2617;51.006;12.436;2023-03-04T15:28:01;5.93;;;1.50;;
5195;SDS011;2617;51.006;12.436;2023-03-04T15:33:04;2.73;;;0.90;;
5195;SDS011;2617;51.006;12.436;2023-03-04T15:38:06;1.80;;;1.70;;
5195;SDS011;2617;51.006;12.436;2023-03-04T15:43:12;1.17;;;1.17;;
5195;SDS011;2617;51.006;12.436;2023-03-04T15:48:16;1.50;;;1.37;;
5195;SDS011;2617;51.006;12.436;2023-03-04T15:53:21;1.97;;;1.50;;
5195;SDS011;2617;51.006;12.436;2023-03-04T15:58:40;5.50;;;1.40;;
5195;SDS011;2617;51.006;12.436;2023-03-04T16:03:43;1.33;;;1.23;;
5195;SDS011;2617;51.006;12.436;2023-03-04T16:08:46;2.63;;;1.60;;
5195;SDS011;2617;51.006;12.436;2023-03-04T16:13:48;8.17;;;1.70;;
5195;SDS011;2617;51.006;12.436;2023-03-04T16:18:51;5.73;;;2.10;;
5195;SDS011;2617;51.006;12.436;2023-03-04T16:23:53;3.80;;;2.63;;
5195;SDS011;2617;51.006;12.436;2023-03-04T16:28:56;5.57;;;4.00;;
5195;SDS011;2617;51.006;12.436;2023-03-04T16:33:58;8.70;;;3.60;;
5195;SDS011;2617;51.006;12.436;2023-03-04T16:39:03;4.40;;;2.80;;
5195;SDS011;2617;51.006;12.436;2023-03-04T16:44:04;5.80;;;3.50;;
5195;SDS011;2617;51.006;12.436;2023-03-04T16:49:06;5.85;;;2.75;;
5195;SDS011;2617;51.006;12.436;2023-03-04T16:54:12;4.67;;;2.70;;
5195;SDS011;2617;51.006;12.436;2023-03-04T16:59:15;6.80;;;3.00;;
5195;SDS011;2617;51.006;12.436;2023-03-04T17:04:18;6.13;;;2.87;;
5195;SDS011;2617;51.006;12.436;2023-03-04T17:09:21;7.62;;;3.15;;
5195;SDS011;2617;51.006;12.436;2023-03-04T17:14:23;5.03;;;2.33;;
5195;SDS011;2617;51.006;12.436;2023-03-04T17:19:26;4.33;;;2.40;;
5195;SDS011;2617;51.006;12.436;2023-03-04T17:24:28;3.27;;;2.63;;
5195;SDS011;2617;51.006;12.436;2023-03-04T17:29:30;4.37;;;2.80;;
5195;SDS011;2617;51.006;12.436;2023-03-04T17:34:34;8.63;;;2.87;;
5195;SDS011;2617;51.006;12.436;2023-03-04T17:39:36;5.50;;;3.00;;
5195;SDS011;2617;51.006;12.436;2023-03-04T17:44:38;2.47;;;2.27;;
5195;SDS011;2617;51.006;12.436;2023-03-04T17:49:42;3.97;;;1.98;;
5195;SDS011;2617;51.006;12.436;2023-03-04T17:54:45;11.60;;;2.60;;
5195;SDS011;2617;51.006;12.436;2023-03-04T17:59:47;4.37;;;2.30;;
5195;SDS011;2617;51.006;12.436;2023-03-04T18:04:49;5.07;;;2.70;;
5195;SDS011;2617;51.006;12.436;2023-03-04T18:09:52;4.60;;;2.33;;
5195;SDS011;2617;51.006;12.436;2023-03-04T18:14:56;7.27;;;3.00;;
5195;SDS011;2617;51.006;12.436;2023-03-04T18:19:58;8.27;;;4.10;;
5195;SDS011;2617;51.006;12.436;2023-03-04T18:25:01;3.00;;;2.20;;
5195;SDS011;2617;51.006;12.436;2023-03-04T18:30:05;2.00;;;1.90;;
5195;SDS011;2617;51.006;12.436;2023-03-04T18:35:08;2.78;;;2.08;;
5195;SDS011;2617;51.006;12.436;2023-03-04T18:40:12;5.37;;;2.17;;
5195;SDS011;2617;51.006;12.436;2023-03-04T18:45:15;2.50;;;2.17;;
5195;SDS011;2617;51.006;12.436;2023-03-04T18:50:18;6.73;;;2.20;;
5195;SDS011;2617;51.006;12.436;2023-03-04T18:55:21;1.83;;;1.60;;
5195;SDS011;2617;51.006;12.436;2023-03-04T19:00:23;7.70;;;2.30;;
5195;SDS011;2617;51.006;12.436;2023-03-04T19:05:26;3.60;;;1.70;;
5195;SDS011;2617;51.006;12.436;2023-03-04T19:10:28;3.33;;;1.87;;
5195;SDS011;2617;51.006;12.436;2023-03-04T19:15:31;17.97;;;2.20;;
5195;SDS011;2617;51.006;12.436;2023-03-04T19:20:33;5.20;;;2.50;;
5195;SDS011;2617;51.006;12.436;2023-03-04T19:25:36;3.23;;;1.40;;
5195;SDS011;2617;51.006;12.436;2023-03-04T19:30:39;4.00;;;1.77;;
5195;SDS011;2617;51.006;12.436;2023-03-04T19:35:43;3.63;;;1.77;;
5195;SDS011;2617;51.006;12.436;2023-03-04T19:40:44;3.43;;;1.47;;
5195;SDS011;2617;51.006;12.436;2023-03-04T19:45:51;4.83;;;1.50;;
5195;SDS011;2617;51.006;12.436;2023-03-04T19:50:54;13.10;;;1.60;;
5195;SDS011;2617;51.006;12.436;2023-03-04T19:55:56;5.30;;;1.63;;
5195;SDS011;2617;51.006;12.436;2023-03-04T20:00:58;7.57;;;2.30;;
5195;SDS011;2617;51.006;12.436;2023-03-04T20:06:04;7.13;;;1.80;;
5195;SDS011;2617;51.006;12.436;2023-03-04T20:11:10;8.27;;;2.55;;
5195;SDS011;2617;51.006;12.436;2023-03-04T20:16:09;8.00;;;1.27;;
5195;SDS011;2617;51.006;12.436;2023-03-04T20:21:12;9.47;;;1.40;;
5195;SDS011;2617;51.006;12.436;2023-03-04T20:26:14;4.82;;;1.80;;
5195;SDS011;2617;51.006;12.436;2023-03-04T20:31:21;7.80;;;1.73;;
5195;SDS011;2617;51.006;12.436;2023-03-04T20:36:24;4.30;;;1.55;;
5195;SDS011;2617;51.006;12.436;2023-03-04T20:41:27;5.17;;;2.00;;
5195;SDS011;2617;51.006;12.436;2023-03-04T20:46:34;7.53;;;1.77;;
5195;SDS011;2617;51.006;12.436;2023-03-04T20:51:38;4.27;;;1.57;;
5195;SDS011;2617;51.006;12.436;2023-03-04T20:56:41;5.70;;;2.00;;
5195;SDS011;2617;51.006;12.436;2023-03-04T21:01:43;8.63;;;2.23;;
5195;SDS011;2617;51.006;12.436;2023-03-04T21:06:46;4.50;;;2.00;;
5195;SDS011;2617;51.006;12.436;2023-03-04T21:11:48;2.80;;;1.60;;
5195;SDS011;2617;51.006;12.436;2023-03-04T21:16:52;8.57;;;2.60;;
5195;SDS011;2617;51.006;12.436;2023-03-04T21:21:54;6.60;;;2.10;;
5195;SDS011;2617;51.006;12.436;2023-03-04T21:26:56;13.43;;;2.43;;
5195;SDS011;2617;51.006;12.436;2023-03-04T21:32:03;5.80;;;2.43;;
5195;SDS011;2617;51.006;12.436;2023-03-04T21:37:06;6.27;;;2.40;;
5195;SDS011;2617;51.006;12.436;2023-03-04T21:42:09;6.43;;;3.12;;
5195;SDS011;2617;51.006;12.436;2023-03-04T21:47:11;9.30;;;2.80;;
5195;SDS011;2617;51.006;12.436;2023-03-04T21:52:14;8.43;;;2.67;;
5195;SDS011;2617;51.006;12.436;2023-03-04T21:57:16;12.23;;;2.83;;
5195;SDS011;2617;51.006;12.436;2023-03-04T22:02:20;4.80;;;2.33;;
5195;SDS011;2617;51.006;12.436;2023-03-04T22:07:21;9.03;;;3.40;;
5195;SDS011;2617;51.006;12.436;2023-03-04T22:12:25;10.68;;;3.80;;
5195;SDS011;2617;51.006;12.436;2023-03-04T22:17:28;9.03;;;2.20;;
5195;SDS011;2617;51.006;12.436;2023-03-04T22:22:30;6.17;;;2.40;;
5195;SDS011;2617;51.006;12.436;2023-03-04T22:27:32;4.77;;;2.10;;
5195;SDS011;2617;51.006;12.436;2023-03-04T22:32:35;6.67;;;1.90;;
5195;SDS011;2617;51.006;12.436;2023-03-04T22:37:37;2.73;;;2.03;;
5195;SDS011;2617;51.006;12.436;2023-03-04T22:42:40;4.65;;;1.90;;
5195;SDS011;2617;51.006;12.436;2023-03-04T22:47:48;4.30;;;1.57;;
5195;SDS011;2617;51.006;12.436;2023-03-04T22:52:51;4.00;;;1.23;;
5195;SDS011;2617;51.006;12.436;2023-03-04T22:57:54;3.80;;;0.80;;
5195;SDS011;2617;51.006;12.436;2023-03-04T23:02:57;2.77;;;1.23;;
5195;SDS011;2617;51.006;12.436;2023-03-04T23:08:00;6.12;;;1.20;;
5195;SDS011;2617;51.006;12.436;2023-03-04T23:13:02;6.93;;;1.40;;
5195;SDS011;2617;51.006;12.436;2023-03-04T23:18:04;2.73;;;1.13;;
5195;SDS011;2617;51.006;12.436;2023-03-04T23:23:07;1.47;;;1.07;;
5195;SDS011;2617;51.006;12.436;2023-03-04T23:28:09;1.17;;;1.07;;
5195;SDS011;2617;51.006;12.436;2023-03-04T23:33:12;5.13;;;2.00;;
5195;SDS011;2617;51.006;12.436;2023-03-04T23:38:15;7.00;;;2.40;;
5195;SDS011;2617;51.006;12.436;2023-03-04T23:43:17;2.03;;;1.40;;
5195;SDS011;2617;51.006;12.436;2023-03-04T23:48:20;4.77;;;1.97;;
5195;SDS011;2617;51.006;12.436;2023-03-04T23:53:23;3.07;;;2.33;;
5195;SDS011;2617;51.006;12.436;2023-03-04T23:58:26;4.40;;;2.25;;
